createdAt,value
2022-09-05T00:02:11.251Z,17.11
2022-09-05T00:04:48.125Z,17.13
2022-09-05T00:07:37.407Z,17.18
2022-09-05T00:10:20.781Z,17.08
2022-09-05T00:13:07.073Z,17.12
2022-09-05T00:15:48.032Z,17.08
2022-09-05T00:24:20.387Z,17.09
2022-09-05T00:24:25.894Z,16.98
2022-09-05T00:25:07.253Z,16.96
2022-09-05T00:27:43.658Z,16.91
2022-09-05T00:31:08.674Z,17.00
2022-09-05T00:33:26.325Z,17.10
2022-09-05T00:36:19.540Z,17.13
2022-09-05T00:38:57.576Z,17.39
2022-09-05T00:41:26.593Z,17.37
2022-09-05T00:43:57.784Z,17.11
2022-09-05T00:46:32.205Z,17.17
2022-09-05T00:49:18.346Z,17.19
2022-09-05T00:51:53.950Z,17.14
2022-09-05T00:54:45.999Z,17.23
2022-09-05T00:57:37.780Z,17.24
2022-09-05T01:00:17.942Z,17.27
2022-09-05T01:03:10.103Z,17.31
2022-09-05T01:06:03.172Z,17.28
2022-09-05T01:09:08.045Z,17.33
2022-09-05T01:12:01.890Z,17.36
2022-09-05T01:14:45.504Z,17.36
2022-09-05T01:17:36.445Z,17.35
2022-09-05T01:20:29.904Z,17.36
2022-09-05T01:23:31.691Z,17.33
2022-09-05T01:26:19.106Z,17.34
2022-09-05T01:29:16.145Z,17.34
2022-09-05T01:32:00.855Z,17.39
2022-09-05T01:34:35.204Z,17.34
2022-09-05T01:37:29.675Z,17.33
2022-09-05T01:40:17.406Z,17.35
2022-09-05T01:42:58.564Z,17.28
2022-09-05T01:45:41.933Z,17.16
2022-09-05T01:48:22.697Z,17.12
2022-09-05T01:51:02.391Z,17.10
2022-09-05T01:53:41.208Z,17.01
2022-09-05T01:56:26.626Z,16.92
2022-09-05T01:59:14.562Z,16.87
2022-09-05T02:02:02.961Z,16.96
2022-09-05T02:04:47.301Z,16.96
2022-09-05T02:07:31.673Z,16.90
2022-09-05T02:10:32.482Z,16.73
2022-09-05T02:13:14.164Z,16.73
2022-09-05T02:15:59.571Z,16.72
2022-09-05T02:18:46.561Z,16.75
2022-09-05T02:21:22.738Z,16.83
2022-09-05T02:24:03.468Z,16.84
2022-09-05T02:26:36.926Z,16.93
2022-09-05T02:29:28.891Z,16.96
2022-09-05T02:32:04.653Z,16.79
2022-09-05T02:34:41.749Z,16.77
2022-09-05T02:37:26.306Z,16.58
2022-09-05T02:45:07.529Z,16.53
2022-09-05T02:45:14.816Z,16.54
2022-09-05T02:46:14.842Z,16.35
2022-09-05T02:48:55.101Z,16.17
2022-09-05T02:57:27.930Z,15.99
2022-09-05T02:57:38.162Z,16.05
2022-09-05T02:58:05.265Z,16.05
2022-09-05T03:00:23.303Z,16.14
2022-09-05T03:03:18.629Z,16.11
2022-09-05T03:05:57.175Z,16.12
2022-09-05T03:08:45.256Z,16.23
2022-09-05T03:11:46.782Z,16.29
2022-09-05T03:14:59.251Z,16.35
2022-09-05T03:17:53.395Z,16.38
2022-09-05T03:21:09.496Z,16.07
2022-09-05T03:24:10.169Z,15.89
2022-09-05T03:27:10.433Z,15.87
2022-09-05T03:30:19.736Z,15.95
2022-09-05T03:33:33.201Z,16.08
2022-09-05T03:36:30.955Z,16.14
2022-09-05T03:39:31.697Z,16.22
2022-09-05T03:42:22.990Z,16.29
2022-09-05T03:45:07.332Z,16.31
2022-09-05T03:47:58.428Z,16.32
2022-09-05T03:57:11.072Z,16.58
2022-09-05T03:57:25.335Z,16.46
2022-09-05T03:57:41.398Z,16.46
2022-09-05T04:00:21.673Z,16.46
2022-09-05T04:08:06.136Z,16.44
2022-09-05T04:08:24.900Z,16.39
2022-09-05T04:08:52.337Z,16.31
2022-09-05T04:11:31.689Z,16.31
2022-09-05T04:14:06.639Z,16.27
2022-09-05T04:16:47.989Z,16.28
2022-09-05T04:19:22.701Z,16.15
2022-09-05T04:21:58.471Z,16.16
2022-09-05T04:24:31.638Z,16.04
2022-09-05T04:27:28.016Z,15.97
2022-09-05T04:30:04.984Z,15.89
2022-09-05T04:33:00.307Z,15.91
2022-09-05T04:35:37.631Z,15.98
2022-09-05T04:38:14.445Z,16.13
2022-09-05T04:40:49.842Z,16.15
2022-09-05T04:43:29.827Z,16.11
2022-09-05T04:46:09.782Z,16.14
2022-09-05T04:48:45.712Z,16.16
2022-09-05T04:52:00.192Z,16.21
2022-09-05T04:54:46.338Z,16.26
2022-09-05T04:57:22.695Z,16.24
2022-09-05T05:02:56.271Z,16.27
2022-09-05T05:06:16.274Z,16.31
2022-09-05T05:06:17.345Z,16.37
2022-09-05T05:08:51.157Z,16.41
2022-09-05T05:17:59.254Z,16.49
2022-09-05T05:17:59.476Z,16.48
2022-09-05T05:18:08.799Z,16.52
2022-09-05T05:20:40.127Z,16.61
2022-09-05T05:23:07.446Z,16.58
2022-09-05T05:25:48.743Z,16.55
2022-09-05T05:28:25.294Z,16.51
2022-09-05T05:31:01.679Z,16.60
2022-09-05T05:33:36.161Z,16.69
2022-09-05T05:36:10.593Z,16.70
2022-09-05T05:38:46.971Z,16.75
2022-09-05T05:41:23.822Z,16.80
2022-09-05T05:43:53.164Z,16.77
2022-09-05T05:46:35.230Z,16.84
2022-09-05T05:49:35.018Z,16.93
2022-09-05T05:52:31.876Z,17.04
2022-09-05T05:55:31.900Z,17.15
2022-09-05T05:58:15.466Z,17.21
2022-09-05T06:01:30.293Z,17.30
2022-09-05T06:04:45.211Z,17.28
2022-09-05T06:07:33.233Z,17.30
2022-09-05T06:14:51.284Z,17.27
2022-09-05T06:15:03.988Z,17.21
2022-09-05T06:17:12.610Z,17.36
2022-09-05T06:20:42.930Z,17.26
2022-09-05T06:23:39.570Z,17.23
2022-09-05T06:26:41.018Z,17.33
2022-09-05T06:29:15.123Z,17.36
2022-09-05T06:32:05.142Z,17.33
2022-09-05T06:35:00.766Z,17.30
2022-09-05T06:37:42.818Z,17.21
2022-09-05T06:40:19.362Z,17.25
2022-09-05T06:43:08.951Z,17.28
2022-09-05T06:45:48.151Z,17.30
2022-09-05T06:48:45.561Z,17.48
2022-09-05T06:51:37.745Z,17.77
2022-09-05T06:54:59.465Z,18.09
2022-09-05T06:57:57.163Z,18.33
2022-09-05T07:00:29.296Z,18.51
2022-09-05T07:03:19.954Z,18.77
2022-09-05T07:05:57.002Z,18.72
2022-09-05T07:08:35.864Z,18.89
2022-09-05T07:11:16.251Z,18.96
2022-09-05T07:13:57.924Z,18.98
2022-09-05T07:16:39.377Z,19.05
2022-09-05T07:19:27.634Z,19.05
2022-09-05T07:22:47.358Z,19.11
2022-09-05T07:25:17.966Z,19.13
2022-09-05T07:28:29.402Z,19.12
2022-09-05T07:30:52.017Z,19.14
2022-09-05T07:33:22.839Z,19.14
2022-09-05T07:35:52.491Z,19.14
2022-09-05T07:38:52.018Z,19.33
2022-09-05T07:41:23.561Z,19.55
2022-09-05T07:43:56.288Z,19.57
2022-09-05T07:46:30.025Z,19.64
2022-09-05T07:49:02.719Z,19.56
2022-09-05T07:56:53.933Z,19.68
2022-09-05T07:56:59.014Z,19.76
2022-09-05T07:57:30.241Z,19.75
2022-09-05T08:00:08.335Z,19.77
2022-09-05T08:02:56.579Z,19.84
2022-09-05T08:05:35.077Z,19.85
2022-09-05T08:08:11.731Z,19.97
2022-09-05T08:11:24.536Z,20.11
2022-09-05T08:14:44.263Z,20.12
2022-09-05T08:16:52.088Z,20.01
2022-09-05T08:19:50.195Z,20.06
2022-09-05T08:22:23.008Z,20.16
2022-09-05T08:25:00.572Z,20.16
2022-09-05T08:27:35.317Z,20.30
2022-09-05T08:30:24.916Z,20.42
2022-09-05T08:33:10.557Z,20.51
2022-09-05T08:35:50.052Z,20.91
2022-09-05T08:38:22.749Z,20.84
2022-09-05T08:41:00.207Z,20.92
2022-09-05T08:46:35.602Z,20.99
2022-09-05T08:46:44.007Z,21.15
2022-09-05T08:49:50.771Z,21.28
2022-09-05T08:52:31.506Z,21.26
2022-09-05T08:55:15.471Z,21.27
2022-09-05T08:58:07.470Z,21.29
2022-09-05T09:00:55.611Z,21.57
2022-09-05T09:03:39.366Z,21.88
2022-09-05T09:06:30.823Z,21.85
2022-09-05T09:09:13.337Z,22.23
2022-09-05T09:11:48.073Z,22.45
2022-09-05T09:14:38.730Z,22.68
2022-09-05T09:17:24.740Z,23.01
2022-09-05T09:20:10.666Z,23.39
2022-09-05T09:22:43.923Z,23.61
2022-09-05T09:25:18.445Z,23.68
2022-09-05T09:28:46.669Z,23.82
2022-09-05T09:31:23.001Z,24.20
2022-09-05T09:34:03.652Z,24.33
2022-09-05T09:36:59.194Z,24.36
2022-09-05T09:39:39.740Z,24.49
2022-09-05T09:42:32.614Z,24.51
2022-09-05T09:45:33.345Z,24.45
2022-09-05T09:48:27.650Z,24.59
2022-09-05T09:51:23.017Z,24.54
2022-09-05T09:54:05.769Z,24.53
2022-09-05T09:57:08.800Z,24.46
2022-09-05T09:59:55.021Z,24.87
2022-09-05T10:04:12.500Z,24.67
2022-09-05T10:10:40.259Z,24.77
2022-09-05T10:10:52.849Z,24.98
2022-09-05T10:12:39.073Z,25.00
2022-09-05T10:15:31.559Z,25.38
2022-09-05T10:18:37.421Z,25.92
2022-09-05T10:21:25.673Z,25.94
2022-09-05T10:24:24.079Z,25.71
2022-09-05T10:27:14.604Z,25.60
2022-09-05T10:29:47.054Z,25.57
2022-09-05T10:34:39.464Z,25.55
2022-09-05T10:35:23.755Z,25.64
2022-09-05T10:37:59.738Z,25.72
2022-09-05T10:41:08.106Z,25.83
2022-09-05T10:43:29.524Z,25.76
2022-09-05T10:46:07.577Z,25.54
2022-09-05T10:48:52.907Z,25.65
2022-09-05T10:51:29.625Z,26.20
2022-09-05T10:54:21.067Z,26.13
2022-09-05T10:56:53.144Z,26.16
2022-09-05T11:02:16.318Z,26.17
2022-09-05T11:02:33.538Z,26.42
2022-09-05T11:05:17.768Z,26.89
2022-09-05T11:07:54.621Z,26.63
2022-09-05T11:10:26.652Z,26.60
2022-09-05T11:13:11.902Z,26.50
2022-09-05T11:16:04.603Z,26.62
2022-09-05T11:18:56.239Z,26.89
2022-09-05T11:21:40.268Z,27.28
2022-09-05T11:24:18.648Z,27.51
2022-09-05T11:26:51.459Z,27.58
2022-09-05T11:29:43.397Z,27.83
2022-09-05T11:37:41.651Z,27.97
2022-09-05T11:39:47.884Z,28.06
2022-09-05T11:39:54.717Z,28.45
2022-09-05T11:42:18.009Z,28.59
2022-09-05T11:45:14.310Z,28.83
2022-09-05T11:48:14.280Z,28.81
2022-09-05T11:51:18.497Z,29.32
2022-09-05T11:54:12.362Z,28.71
2022-09-05T11:57:31.926Z,29.51
2022-09-05T12:00:31.923Z,29.69
2022-09-05T12:03:59.203Z,29.92
2022-09-05T12:06:59.576Z,30.43
2022-09-05T12:09:47.351Z,30.59
2022-09-05T12:12:41.698Z,30.90
2022-09-05T12:15:33.772Z,30.49
2022-09-05T12:18:24.224Z,30.55
2022-09-05T12:21:03.654Z,30.77
2022-09-05T12:24:13.893Z,31.03
2022-09-05T12:27:40.234Z,31.02
2022-09-05T12:29:46.773Z,30.97
2022-09-05T12:34:53.950Z,31.34
2022-09-05T12:36:11.065Z,31.06
2022-09-05T12:41:33.446Z,31.13
2022-09-05T12:41:42.950Z,31.02
2022-09-05T12:44:41.031Z,31.00
2022-09-05T12:47:16.703Z,31.53
2022-09-05T12:50:02.906Z,30.99
2022-09-05T12:52:42.717Z,30.91
2022-09-05T12:55:20.957Z,31.23
2022-09-05T13:02:55.016Z,31.52
2022-09-05T13:03:15.335Z,31.67
2022-09-05T13:04:06.008Z,31.86
2022-09-05T13:06:40.883Z,31.64
2022-09-05T13:09:19.480Z,31.89
2022-09-05T13:14:48.923Z,31.93
2022-09-05T13:15:11.514Z,32.17
2022-09-05T13:17:52.377Z,32.27
2022-09-05T13:20:34.042Z,31.85
2022-09-05T13:23:14.359Z,32.37
2022-09-05T13:25:44.981Z,32.34
2022-09-05T13:28:16.065Z,31.62
2022-09-05T13:37:55.687Z,31.63
2022-09-05T13:37:59.608Z,31.88
2022-09-05T13:38:17.982Z,32.16
2022-09-05T13:39:40.544Z,31.72
2022-09-05T13:42:17.243Z,31.78
2022-09-05T13:44:47.499Z,31.62
2022-09-05T13:47:30.713Z,31.73
2022-09-05T13:50:20.126Z,31.96
2022-09-05T13:52:54.821Z,31.84
2022-09-05T13:55:33.500Z,31.60
2022-09-05T13:58:07.265Z,31.79
2022-09-05T14:01:07.981Z,32.04
2022-09-05T14:07:46.127Z,31.50
2022-09-05T14:10:45.204Z,31.69
2022-09-05T14:13:19.231Z,31.54
2022-09-05T14:15:56.707Z,31.67
2022-09-05T14:18:27.919Z,31.47
2022-09-05T14:21:17.184Z,31.36
2022-09-05T14:23:56.009Z,31.29
2022-09-05T14:26:34.442Z,31.06
2022-09-05T14:29:15.774Z,31.11
2022-09-05T14:34:55.415Z,31.37
2022-09-05T14:37:48.702Z,31.22
2022-09-05T14:38:11.589Z,30.90
2022-09-05T14:41:15.908Z,30.95
2022-09-05T14:44:27.625Z,30.91
2022-09-05T14:47:32.573Z,30.69
2022-09-05T14:50:20.744Z,30.64
2022-09-05T14:56:47.742Z,30.94
2022-09-05T15:02:48.565Z,30.94
2022-09-05T15:02:54.383Z,30.82
2022-09-05T15:04:44.563Z,30.53
2022-09-05T15:07:19.923Z,30.61
2022-09-05T15:12:15.504Z,30.40
2022-09-05T15:12:52.081Z,30.31
2022-09-05T15:15:28.604Z,30.35
2022-09-05T15:18:02.049Z,30.27
2022-09-05T15:20:36.698Z,30.45
2022-09-05T15:23:16.273Z,30.32
2022-09-05T15:25:48.474Z,30.01
2022-09-05T15:28:22.291Z,30.09
2022-09-05T15:30:59.912Z,29.95
2022-09-05T15:33:31.726Z,29.77
2022-09-05T15:36:04.787Z,29.46
2022-09-05T15:38:46.679Z,29.50
2022-09-05T15:41:25.848Z,29.33
2022-09-05T15:44:09.271Z,29.00
2022-09-05T15:46:47.315Z,29.35
2022-09-05T15:49:31.827Z,29.38
2022-09-05T15:52:03.350Z,29.38
2022-09-05T15:54:38.366Z,29.33
2022-09-05T15:57:15.263Z,29.15
2022-09-05T15:59:49.084Z,29.13
2022-09-05T16:02:22.457Z,29.14
2022-09-05T16:10:27.871Z,28.75
2022-09-05T16:10:31.214Z,28.95
2022-09-05T16:11:07.067Z,28.40
2022-09-05T16:13:53.122Z,28.33
2022-09-05T16:23:11.715Z,28.16
2022-09-05T16:23:17.637Z,27.85
2022-09-05T16:23:27.098Z,27.91
2022-09-05T16:25:12.133Z,27.91
2022-09-05T16:27:52.679Z,27.94
2022-09-05T16:30:23.445Z,27.54
2022-09-05T16:32:56.841Z,27.46
2022-09-05T16:35:26.326Z,27.43
2022-09-05T16:38:03.370Z,26.98
2022-09-05T16:40:36.334Z,27.09
2022-09-05T16:43:08.713Z,27.16
2022-09-05T16:45:51.756Z,27.21
2022-09-05T16:48:36.529Z,27.05
2022-09-05T16:51:15.639Z,26.77
2022-09-05T16:53:58.884Z,26.43
2022-09-05T16:56:34.625Z,26.36
2022-09-05T16:59:08.328Z,26.27
2022-09-05T17:02:06.050Z,26.41
2022-09-05T17:05:03.508Z,26.12
2022-09-05T17:07:46.386Z,25.95
2022-09-05T17:10:20.083Z,25.90
2022-09-05T17:12:52.175Z,25.80
2022-09-05T17:15:23.757Z,25.68
2022-09-05T17:18:22.489Z,25.57
2022-09-05T17:20:51.751Z,25.42
2022-09-05T17:29:15.786Z,25.35
2022-09-05T17:29:33.327Z,25.28
2022-09-05T17:32:50.778Z,25.06
2022-09-05T17:35:42.179Z,25.02
2022-09-05T17:38:35.159Z,24.89
2022-09-05T17:41:35.535Z,24.75
2022-09-05T17:44:10.953Z,24.68
2022-09-05T17:46:51.181Z,24.60
2022-09-05T17:49:42.880Z,24.50
2022-09-05T17:52:20.854Z,24.48
2022-09-05T17:54:52.286Z,24.44
2022-09-05T17:57:50.823Z,24.42
2022-09-05T18:01:01.362Z,24.40
2022-09-05T18:04:17.892Z,24.30
2022-09-05T18:10:12.894Z,24.26
2022-09-05T18:13:13.625Z,24.22
2022-09-05T18:16:12.795Z,24.16
2022-09-05T18:19:32.681Z,24.17
2022-09-05T18:21:54.112Z,24.12
2022-09-05T18:24:33.481Z,24.14
2022-09-05T18:28:03.670Z,23.92
2022-09-05T18:30:06.655Z,24.02
2022-09-05T18:33:55.252Z,24.02
2022-09-05T18:36:33.380Z,23.96
2022-09-05T18:39:42.052Z,24.03
2022-09-05T18:42:33.634Z,23.97
2022-09-05T18:45:15.132Z,23.86
2022-09-05T18:47:51.202Z,23.79
2022-09-05T18:50:28.943Z,23.80
2022-09-05T18:53:10.215Z,23.79
2022-09-05T18:56:11.617Z,23.73
2022-09-05T18:58:51.869Z,23.59
2022-09-05T19:01:31.654Z,23.55
2022-09-05T19:04:06.816Z,23.54
2022-09-05T19:06:45.145Z,23.48
2022-09-05T19:09:26.830Z,23.44
2022-09-05T19:12:33.321Z,23.31
2022-09-05T19:14:56.793Z,23.18
2022-09-05T19:17:34.760Z,23.17
2022-09-05T19:20:32.555Z,23.15
2022-09-05T19:23:11.835Z,23.05
2022-09-05T19:25:43.570Z,23.06
2022-09-05T19:34:51.778Z,22.96
2022-09-05T19:36:53.518Z,22.99
2022-09-05T19:36:59.601Z,22.97
2022-09-05T19:42:49.515Z,22.99
2022-09-05T19:47:29.165Z,22.90
2022-09-05T19:47:49.713Z,22.79
2022-09-05T19:48:20.959Z,22.66
2022-09-05T19:50:49.552Z,22.67
2022-09-05T19:53:21.010Z,22.51
2022-09-05T19:55:49.515Z,22.42
2022-09-05T19:58:22.095Z,22.53
2022-09-05T20:01:02.542Z,22.34
2022-09-05T20:03:41.573Z,22.10
2022-09-05T20:06:29.617Z,22.21
2022-09-05T20:09:15.262Z,22.27
2022-09-05T20:11:49.420Z,22.34
2022-09-05T20:14:20.873Z,22.33
2022-09-05T20:16:49.791Z,22.37
2022-09-05T20:19:30.581Z,22.13
2022-09-05T20:22:24.589Z,21.78
2022-09-05T20:24:56.215Z,21.91
2022-09-05T20:27:28.245Z,21.77
2022-09-05T20:29:59.748Z,21.90
2022-09-05T20:32:38.576Z,21.98
2022-09-05T20:41:05.342Z,21.93
2022-09-05T20:43:18.114Z,21.87
2022-09-05T20:43:35.115Z,21.90
2022-09-05T20:43:53.664Z,22.02
2022-09-05T20:51:19.890Z,22.05
2022-09-05T20:54:14.690Z,22.08
2022-09-05T20:54:22.764Z,22.06
2022-09-05T20:55:38.341Z,22.00
2022-09-05T20:58:11.339Z,21.85
2022-09-05T21:01:15.684Z,21.77
2022-09-05T21:03:36.645Z,21.56
2022-09-05T21:06:12.874Z,21.26
2022-09-05T21:08:41.115Z,21.04
2022-09-05T21:11:09.253Z,20.86
2022-09-05T21:13:52.648Z,20.89
2022-09-05T21:16:23.780Z,20.98
2022-09-05T21:18:53.045Z,21.06
2022-09-05T21:21:29.240Z,21.10
2022-09-05T21:24:17.286Z,21.17
2022-09-05T21:26:49.235Z,21.22
2022-09-05T21:29:27.576Z,21.18
2022-09-05T21:32:04.054Z,21.29
2022-09-05T21:34:44.893Z,21.24
2022-09-05T21:37:15.875Z,21.34
2022-09-05T21:39:59.123Z,21.33
2022-09-05T21:47:33.281Z,21.20
2022-09-05T21:47:48.870Z,21.26
2022-09-05T21:48:10.514Z,21.23
2022-09-05T21:50:41.810Z,21.21
2022-09-05T21:57:50.653Z,21.12
2022-09-05T21:59:28.369Z,20.95
2022-09-05T21:59:33.665Z,21.00
2022-09-05T22:01:52.751Z,20.97
2022-09-05T22:04:22.075Z,21.03
2022-09-05T22:06:50.850Z,21.05
2022-09-05T22:09:20.126Z,21.00
2022-09-05T22:11:50.616Z,21.00
2022-09-05T22:14:19.365Z,20.99
2022-09-05T22:16:50.174Z,21.02
2022-09-05T22:19:33.995Z,20.80
2022-09-05T22:22:16.028Z,20.66
2022-09-05T22:24:48.567Z,20.67
2022-09-05T22:27:19.897Z,20.48
2022-09-05T22:29:50.658Z,20.51
2022-09-05T22:32:33.982Z,20.54
2022-09-05T22:35:15.710Z,20.55
2022-09-05T22:37:59.617Z,20.54
2022-09-05T22:40:29.700Z,20.51
2022-09-05T22:42:58.276Z,20.62
2022-09-05T22:45:26.524Z,20.61
2022-09-05T22:47:55.909Z,20.68
2022-09-05T22:50:24.637Z,20.64
2022-09-05T22:52:52.797Z,20.43
2022-09-05T22:55:20.850Z,20.31
2022-09-05T22:57:49.217Z,20.03
2022-09-05T23:00:17.306Z,19.87
2022-09-05T23:02:48.993Z,19.76
2022-09-05T23:05:21.300Z,19.72
2022-09-05T23:07:49.670Z,19.71
2022-09-05T23:10:18.304Z,19.70
2022-09-05T23:12:46.270Z,19.75
2022-09-05T23:15:14.881Z,19.82
2022-09-05T23:17:43.366Z,19.93
2022-09-05T23:20:12.254Z,20.10
2022-09-05T23:22:43.309Z,20.19
2022-09-05T23:25:11.776Z,20.30
2022-09-05T23:27:40.220Z,20.23
2022-09-05T23:30:09.510Z,20.28
2022-09-05T23:32:37.739Z,20.12
2022-09-05T23:35:06.294Z,19.99
2022-09-05T23:37:34.345Z,19.97
2022-09-05T23:40:04.303Z,20.09
2022-09-05T23:42:32.379Z,20.11
2022-09-05T23:45:00.688Z,20.10
2022-09-05T23:47:29.790Z,19.97
2022-09-05T23:49:57.885Z,19.83
2022-09-05T23:52:26.000Z,19.78
2022-09-05T23:54:53.963Z,19.86
2022-09-05T23:57:24.158Z,20.00
2022-09-05T23:59:52.854Z,20.03
